Latest Coastal Weather Observations for Derby

IDW60701

Issued at 9:51 am WST Wednesday 4 May 2016 (issued every 10 minutes, with the page automatically refreshed every 10 minutes)

About coastal observations | Map of coastal stations | Coastal observations for WA | Marine services | Other Formats
Station Details ID: 003032 Name: DERBY AERO Lat: -17.37 Lon: 123.66 Height: 6.2 m
Data from the previous 72 hours. | See also: Recent months at Derby
Date/Time
WST
Temp

°C
Wind Pressure Rain
since 9am
mm
Weather Cloud Vis
km
Sea
Height
m
Swell
Dir
 
Speed
knots
Gust
knots
hPa Trend Height
m
Period
s
Dir
04/09:30am 33.2 NNW 12 17 1012.2 - 0.0 - - - - - - -
04/09:00am 32.3 NNW 10 15 1012.3 - 0.0 - - - - - - -
04/08:30am 31.8 NW 11 14 1012.2 - 0.0 - - - - - - -
04/08:00am 31.3 NW 11 14 1012.0 - 0.0 - - - - - - -
04/07:30am 30.5 NW 11 13 1011.6 - 0.0 - - - - - - -
04/07:00am 29.7 NW 9 11 1011.4 - 0.0 - - - - - - -
04/06:30am 29.1 NW 9 11 1011.0 - 0.0 - - - - - - -
04/06:00am 28.5 NW 8 10 1010.7 - 0.0 - - - - - - -
04/05:30am 28.6 NNW 8 10 1010.4 - 0.0 - - - - - - -
04/05:00am 28.8 NNW 9 11 1010.0 - 0.0 - - - - - - -
04/04:30am 28.8 NW 9 11 1009.8 - 0.0 - - - - - - -
04/04:00am 28.7 NNW 8 9 1009.6 - 0.0 - - - - - - -
04/03:30am 27.9 NNW 5 6 1009.7 - 0.0 - - - - - - -
04/03:00am 28.1 NNW 5 7 1009.5 - 0.0 - - - - - - -
04/02:30am 28.4 NNW 7 9 1009.2 - 0.0 - - - - - - -
04/02:00am 27.9 NNW 7 8 1009.3 - 0.0 - - - - - - -
04/01:30am 27.7 N 4 5 1009.4 - 0.0 - - - - - - -
04/01:00am 28.1 NNW 5 6 1009.5 - 0.0 - - - - - - -
04/12:30am 28.5 W 5 5 1009.8 - 0.0 - - - - - - -
04/12:00am 28.6 NW 5 5 1010.1 - 0.0 - - - - - - -
 
Date/Time
WST
Temp

°C
Wind Pressure Rain
since 9am
mm
Weather Cloud Vis
km
Sea
Height
m
Swell
Dir
 
Speed
knots
Gust
knots
hPa Trend Height
m
Period
s
Dir
03/11:30pm 29.0 NW 5 6 1010.2 - 0.0 - - - - - - -
03/11:00pm 29.3 NW 6 7 1010.3 - 0.0 - - - - - - -
03/10:30pm 29.4 NW 6 7 1010.5 - 0.0 - - - - - - -
03/10:00pm 29.8 NNW 6 7 1010.6 - 0.0 - - - - - - -
03/09:30pm 30.5 NW 6 8 1010.5 - 0.0 - - - - - - -
03/09:00pm 31.1 WNW 9 12 1010.6 - 0.0 - - - - - - -
03/08:30pm 31.2 WNW 8 11 1010.4 - 0.0 - - - - - - -
03/08:00pm 31.5 WNW 9 11 1010.0 - 0.0 - - - - - - -
03/07:30pm 31.3 NNW 7 9 1009.9 - 0.0 - - - - - - -
03/07:00pm 31.7 NW 9 11 1009.3 - 0.0 - - - - - - -
03/06:30pm 32.1 NW 11 13 1008.8 - 0.0 - - - - - - -
03/06:00pm 33.4 NW 11 14 1008.2 - 0.0 - - - - - - -
03/05:30pm 34.4 NNW 10 12 1007.9 - 0.0 - - - - - - -
03/05:00pm 34.8 NNW 13 15 1007.7 - 0.0 - - - - - - -
03/04:30pm 36.9 NW 13 16 1007.2 - 0.0 - - - - - - -
03/04:00pm 37.5 NW 14 17 1007.1 - 0.0 - - - - - - -
03/03:30pm 39.2 WSW 13 18 1006.7 - 0.0 - - - - - - -
03/03:00pm 39.7 WSW 11 20 1006.7 - 0.0 - - - - - - -
03/02:30pm 40.3 SSW 9 14 1007.0 - 0.0 - - - - - - -
03/02:00pm 39.0 SW 9 12 1007.3 - 0.0 - - - - - - -
03/01:30pm 39.2 SW 9 13 1007.7 - 0.0 - - - - - - -
03/01:00pm 39.2 WSW 8 15 1008.1 - 0.0 - - - - - - -
03/12:30pm 38.2 SSW 8 10 1008.7 - 0.0 - - - - - - -
03/12:00pm 38.5 SW 5 11 1009.2 - 0.0 - - - - - - -
03/11:30am 37.3 S 6 10 1009.7 - 0.0 - - - - - - -
03/11:00am 37.0 SSE 3 9 1010.2 - 0.0 - - - - - - -
03/10:30am 36.3 SSW 4 7 1010.8 - 0.0 - - - - - - -
03/10:00am 34.8 SSW 3 5 1011.3 - 0.0 - - - - - - -
03/09:30am 33.5 SSW 3 5 1011.6 - 0.0 - - - - - - -
03/09:00am 32.2 S 3 5 1011.8 - 0.0 - - - - - - -
03/08:30am 30.4 SSW 5 7 1011.8 - 0.0 - - - - - - -
03/08:00am 29.5 SSW 6 7 1011.5 - 0.0 - - - - - - -
03/07:30am 27.7 SSW 5 7 1011.2 - 0.0 - - - - - - -
03/07:00am 26.3 S 5 7 1011.3 - 0.0 - - - - - - -
03/06:30am 25.7 SSE 5 7 1011.2 - 0.0 - - - - - - -
03/06:00am 25.0 SSE 4 5 1011.1 - 0.0 - - - - - - -
03/05:30am 25.4 S 4 6 1010.7 - 0.0 - - - - - - -
03/05:00am 25.9 S 4 5 1010.6 - 0.0 - - - - - - -
03/04:30am 25.2 ENE 3 5 1010.5 - 0.0 - - - - - - -
03/04:00am 25.6 CALM 0 0 1010.3 - 0.0 - - - - - - -
03/03:30am 25.7 CALM 0 0 1010.0 - 0.0 - - - - - - -
03/03:00am 25.6 CALM 0 0 1009.9 - 0.0 - - - - - - -
03/02:30am 25.6 CALM 0 0 1009.8 - 0.0 - - - - - - -
03/02:00am 26.2 CALM 0 0 1009.8 - 0.0 - - - - - - -
03/01:30am 25.6 CALM 0 0 1010.0 - 0.0 - - - - - - -
03/01:00am 26.5 CALM 0 0 1010.0 - 0.0 - - - - - - -
03/12:30am 26.7 CALM 0 0 1010.4 - 0.0 - - - - - - -
03/12:00am 27.3 CALM 0 0 1010.7 - 0.0 - - - - - - -
 
Date/Time
WST
Temp

°C
Wind Pressure Rain
since 9am
mm
Weather Cloud Vis
km
Sea
Height
m
Swell
Dir
 
Speed
knots
Gust
knots
hPa Trend Height
m
Period
s
Dir
02/11:30pm 28.9 SSW 4 5 1010.9 - 0.0 - - - - - - -
02/11:00pm 28.9 SW 5 6 1011.1 - 0.0 - - - - - - -
02/10:30pm 28.9 WSW 6 7 1011.1 - 0.0 - - - - - - -
02/10:00pm 29.9 WSW 7 8 1011.1 - 0.0 - - - - - - -
02/09:30pm 30.5 WSW 8 10 1011.1 - 0.0 - - - - - - -
02/09:00pm 30.7 WNW 6 9 1011.3 - 0.0 - - - - - - -
02/08:30pm 31.1 NW 8 11 1011.3 - 0.0 - - - - - - -
02/08:00pm 30.8 NNW 7 8 1011.1 - 0.0 - - - - - - -
02/07:30pm 31.1 NW 7 10 1010.8 - 0.0 - - - - - - -
02/07:00pm 31.7 NNW 10 12 1010.3 - 0.0 - - - - - - -
02/06:30pm 31.9 NNW 9 11 1010.1 - 0.0 - - - - - - -
02/06:00pm 32.4 NW 10 12 1009.7 - 0.0 - - - - - - -
02/05:30pm 32.8 NW 12 14 1009.3 - 0.0 - - - - - - -
02/05:00pm 36.3 NW 9 11 1009.0 - 0.0 - - - - - - -
02/04:30pm 37.0 NW 10 13 1008.8 - 0.0 - - - - - - -
02/04:00pm 37.4 NNW 10 13 1008.6 - 0.0 - - - - - - -
02/03:30pm 37.7 NW 9 12 1008.5 - 0.0 - - - - - - -
02/03:00pm 37.9 NW 11 14 1008.4 - 0.0 - - - - - - -
02/02:30pm 37.9 NW 9 15 1008.4 - 0.0 - - - - - - -
02/02:00pm 38.1 NW 9 13 1008.6 - 0.0 - - - - - - -
02/01:30pm 38.6 WNW 10 13 1008.9 - 0.0 - - - - - - -
02/01:00pm 38.2 WNW 7 11 1009.3 - 0.0 - - - - - - -
02/12:30pm 37.7 WSW 7 14 1009.7 - 0.0 - - - - - - -
02/12:00pm 37.7 SW 9 13 1010.2 - 0.0 - - - - - - -
02/11:30am 36.9 SW 10 13 1010.6 - 0.0 - - - - - - -
02/11:00am 36.7 SW 10 14 1011.2 - 0.0 - - - - - - -
02/10:30am 35.9 SW 9 12 1011.7 - 0.0 - - - - - - -
02/10:00am 35.0 SW 9 13 1012.1 - 0.0 - - - - - - -
02/09:30am 33.3 SW 7 10 1012.5 - 0.0 - - - - - - -
02/09:00am 32.1 SSW 9 11 1012.5 - 0.0 - - - - - - -
02/08:30am 30.8 SSW 11 14 1012.2 - 0.0 - - - - - - -
02/08:00am 29.4 SSW 8 9 1012.2 - 0.0 - - - - - - -
02/07:30am 27.9 SSW 6 8 1012.2 - 0.0 - - - - - - -
02/07:00am 26.3 S 5 6 1011.9 - 0.0 - - - - - - -
02/06:30am 25.7 SSE 5 7 1011.6 - 0.0 - - - - - - -
02/06:00am 25.3 SSE 4 5 1011.2 - 0.0 - - - - - - -
02/05:30am 25.7 S 5 6 1010.8 - 0.0 - - - - - - -
02/05:00am 25.8 S 5 6 1010.4 - 0.0 - - - - - - -
02/04:30am 25.6 S 4 5 1010.1 - 0.0 - - - - - - -
02/04:00am 25.8 SSE 2 4 1010.0 - 0.0 - - - - - - -
02/03:30am 25.8 SSW 4 5 1009.9 - 0.0 - - - - - - -
02/03:00am 25.7 CALM 0 0 1010.0 - 0.0 - - - - - - -
02/02:30am 25.9 S 1 3 1009.9 - 0.0 - - - - - - -
02/02:00am 25.9 S 3 3 1009.9 - 0.0 - - - - - - -
02/01:30am 26.3 SSW 5 6 1010.0 - 0.0 - - - - - - -
02/01:00am 26.7 S 3 4 1010.3 - 0.0 - - - - - - -
02/12:30am 26.9 SE 3 4 1010.4 - 0.0 - - - - - - -
02/12:00am 27.2 SSE 3 4 1010.6 - 0.0 - - - - - - -
 
Date/Time
WST
Temp

°C
Wind Pressure Rain
since 9am
mm
Weather Cloud Vis
km
Sea
Height
m
Swell
Dir
 
Speed
knots
Gust
knots
hPa Trend Height
m
Period
s
Dir
01/11:30pm 27.4 S 5 6 1010.6 - 0.0 - - - - - - -
01/11:00pm 27.7 S 5 6 1010.6 - 0.0 - - - - - - -
01/10:30pm 28.2 SW 5 7 1010.9 - 0.0 - - - - - - -
01/10:00pm 28.6 WSW 5 6 1011.1 - 0.0 - - - - - - -
01/09:30pm 29.2 WSW 5 26 1011.1 - 0.0 - - - - - - -
01/09:00pm 29.6 WSW 3 5 1011.2 - 0.0 - - - - - - -
01/08:30pm 30.1 WNW 7 10 1011.2 - 0.0 - - - - - - -
01/08:00pm 30.6 NNW 9 11 1010.9 - 0.0 - - - - - - -
01/07:30pm 30.8 NNW 8 11 1010.7 - 0.0 - - - - - - -
01/07:00pm 31.0 NNW 10 12 1010.3 - 0.0 - - - - - - -
01/06:30pm 31.2 NNW 13 17 1009.9 - 0.0 - - - - - - -
01/06:00pm 31.6 NNW 13 17 1009.7 - 0.0 - - - - - - -
01/05:30pm 33.0 NNW 10 13 1009.5 - 0.0 - - - - - - -
01/05:00pm 34.1 NNW 10 13 1009.2 - 0.0 - - - - - - -
01/04:30pm 34.4 NNW 13 15 1009.0 - 0.0 - - - - - - -
01/04:00pm 35.8 NW 11 14 1008.6 - 0.0 - - - - - - -
01/03:30pm 37.2 NW 12 15 1008.2 - 0.0 - - - - - - -
01/03:00pm 37.3 WNW 11 16 1008.1 - 0.0 - - - - - - -
01/02:30pm 37.7 WNW 10 13 1008.0 - 0.0 - - - - - - -
01/02:00pm 37.8 WNW 11 15 1008.1 - 0.0 - - - - - - -
01/01:30pm 37.7 NW 8 12 1008.6 - 0.0 - - - - - - -
01/01:00pm 36.3 WNW 8 11 1009.2 - 0.0 - - - - - - -
01/12:30pm 36.6 WNW 6 11 1009.8 - 0.0 - - - - - - -
01/12:00pm 35.5 WSW 5 9 1010.3 - 0.0 - - - - - - -
01/11:30am 35.6 SSW 5 11 1010.9 - 0.0 - - - - - - -
01/11:00am 34.3 SW 7 13 1011.5 - 0.0 - - - - - - -
01/10:30am 33.8 SSE 3 6 1012.4 - 0.0 - - - - - - -
01/10:00am 32.5 SE 4 6 1012.9 - 0.0 - - - - - - -

Other Formats:

Comma delimited format used in spreadsheet applications
http://www.bom.gov.au/fwo/IDW60701/IDW60701.95205.axf

JavaScript Object Notation format (JSON) in row-major order
http://www.bom.gov.au/fwo/IDW60701/IDW60701.95205.json